Lynn, MA (01904)

11:54 PM EST on February 10, 2016 (GMT -0500)
wyoma square area | | Change Station
CLOSE
Current Station
Personal Weather Station
Location: Lynn, MA
Elevation: 82 ft
Nearby Weather Stations
Active Advisory: Special Statement

Elev 82 ft 42.48 °N, 70.96 °W | Updated 10 minutes ago

Clear
Clear
28.8 °F
Feels Like 25 °F
N
3.2
Wind Variable Wind from East

Today
High -- | Low -- °F
--% Chance of Precip.
Yesterday
High -- | Low -- °F
Precip. -- in
Pressure 29.61 in
Visibility 10.0 miles
Clouds Clear
Windchill 25 °F
Dew Point 23 °F
Humidity 78%
Rainfall 0.00 in
Snow Depth Not available.
6:47 AM 5:08 PM
Waxing Crescent, 9% visible
METAR KBVY 110353Z AUTO 27009KT 10SM CLR M01/M07 A2961 RMK AO2 SLP026 T10111067
Pressure 29.61 in
Visibility 10.0 miles
Clouds Clear
Windchill 25 °F
Dew Point 23 °F
Humidity 78%
Rainfall 0.00 in
Snow Depth Not available.
6:47 AM 5:08 PM
Waxing Crescent, 9% visible
METAR KBVY 110353Z AUTO 27009KT 10SM CLR M01/M07 A2961 RMK AO2 SLP026 T10111067

10-Day Weather Forecast

Almanac

Astronomy

Feb. 10, 2016 Rise Set
Actual Time
Civil Twilight
Nautical Twilight
Astronomical Twilight
Moon
Length of Visible Light
Length of Day
Tomorrow will be .
, % of the Moon is Illuminated

Today's Extremes

State Highs State Lows

Community

WunderPhotos

Upload Photos

1,892,015 photos uploaded!

WunderBlog® & News

Nearby

Air Quality

  Air Quality AQ Index Pollutant
Not available.

Snow Depth

Station Depth Elevation

Earthquake Activity

City Distance Mag. Time & Date
Minimum magnitude displayed is 2.5.

Coastal Water Temperatures

Place Temperature

Stations

Nearby Weather Stations

Station Location Temp. Windchill Dew Point Humidity Wind Precip. Elev Updated Type
                   

Watches & Warnings

Special Statement
Issued: 7:53 PM EST Feb. 10, 2016 – National Weather Service

... Patchy black ice may develop this evening...

Isolated snow showers will be coming to an end this evening.
However... temperatures were dropping below freezing and winds
were rather light. This may allow patchy black ice to develop on
wet roads and walkways from the earlier snow showers. Motorists
are urged to drive with extra caution this evening as roads that
appear wet may be icy.


Frank


753 PM EST Wed Feb 10 2016

... Patchy black ice may develop this evening...

Isolated snow showers will be coming to an end this evening.
However... temperatures were dropping below freezing and winds
were rather light. This may allow patchy black ice to develop on
wet roads and walkways from the earlier snow showers. Motorists
are urged to drive with extra caution this evening as roads that
appear wet may be icy.


Frank